Time;durP1;ratioP1;P1;durP2;ratioP2;P2;SDS_P1;SDS_P2;PMS_P1;PMS_P2;Temp;Humidity;BMP_temperature;BMP_pressure;BME280_temperature;BME280_humidity;BME280_pressure;Samples;Min_cycle;Max_cycle;Signal;HPM_P1;HPM_P2
2023/01/09 00:01:40;;;;;;;6.43;5.80;;;6.60;99.90;;;-141.84;78.50;19151.34;5052407;28;20224;-61
2023/01/09 00:04:08;;;;;;;6.20;5.60;;;6.50;99.90;;;-141.84;78.61;19110.72;5051618;28;20209;-60
2023/01/09 00:06:38;;;;;;;5.93;5.33;;;6.50;99.90;;;-141.84;79.08;19114.78;5051357;28;20209;-60
2023/01/09 00:09:07;;;;;;;6.40;5.67;;;6.50;99.90;;;-141.84;79.03;19126.97;5051501;28;20777;-60
2023/01/09 00:11:35;;;;;;;5.83;5.33;;;6.50;99.90;;;-141.84;78.40;19129.00;5051623;28;20602;-59
2023/01/09 00:14:04;;;;;;;5.83;5.27;;;6.50;99.90;;;-141.84;78.71;19112.75;5051581;28;20236;-59
2023/01/09 00:16:34;;;;;;;6.17;5.57;;;6.60;99.90;;;-141.84;77.37;19124.94;5052349;28;20201;-60
2023/01/09 00:19:02;;;;;;;6.07;5.47;;;6.60;99.90;;;-141.84;76.41;19167.59;5051499;28;20272;-61
2023/01/09 00:21:30;;;;;;;5.77;5.27;;;6.70;99.90;;;-141.84;76.87;19133.06;5051490;28;20229;-60
2023/01/09 00:23:58;;;;;;;6.37;5.17;;;6.80;99.90;;;-141.84;76.91;19165.56;5051256;28;20236;-60
2023/01/09 00:26:27;;;;;;;5.73;5.20;;;6.80;99.90;;;-141.84;76.87;19153.38;5051580;28;20263;-60
2023/01/09 00:28:55;;;;;;;6.07;5.13;;;6.80;99.90;;;-141.84;76.86;19149.31;5051442;28;20197;-61
2023/01/09 00:31:23;;;;;;;5.37;4.87;;;6.80;99.90;;;-141.84;76.85;19153.38;5051781;28;20676;-60
2023/01/09 00:34:00;;;;;;;5.47;4.97;;;6.80;99.90;;;-141.84;76.96;19133.06;5051155;28;20229;-60
2023/01/09 00:36:28;;;;;;;5.57;5.07;;;6.80;99.90;;;-141.84;77.05;19124.94;5051413;28;20229;-60
2023/01/09 00:38:57;;;;;;;5.57;5.07;;;6.80;99.90;;;-141.84;77.10;19153.38;5051045;28;20235;-59
2023/01/09 00:41:31;;;;;;;5.77;5.27;;;6.80;99.90;;;-141.84;76.67;19167.59;5051053;28;20233;-60
2023/01/09 00:44:06;;;;;;;6.00;5.10;;;6.80;99.90;;;-141.84;75.91;19171.66;5040230;28;20190;-60
2023/01/09 00:46:40;;;;;;;5.67;4.57;;;6.90;99.90;;;-141.84;75.65;19141.19;5031895;28;20186;-60
2023/01/09 00:49:13;;;;;;;5.37;4.87;;;6.90;99.90;;;-141.84;75.79;19181.81;5031416;28;20567;-60
2023/01/09 00:51:42;;;;;;;5.43;4.93;;;6.90;99.90;;;-141.84;76.10;19133.06;5031111;28;20241;-59
2023/01/09 00:54:14;;;;;;;4.93;4.43;;;6.90;99.90;;;-141.84;75.90;19169.63;5030930;28;20244;-62
2023/01/09 00:56:43;;;;;;;5.33;4.67;;;6.90;99.90;;;-141.84;76.25;19143.22;5031251;28;20229;-60
2023/01/09 00:59:11;;;;;;;5.57;5.07;;;6.90;99.90;;;-141.84;76.58;19124.94;5030609;28;20237;-60
2023/01/09 01:01:40;;;;;;;5.67;5.07;;;6.80;99.90;;;-141.84;76.59;19137.13;5031479;28;20650;-60
2023/01/09 01:09:41;;;;;;;5.20;4.70;;;6.70;99.90;;;-141.84;77.18;19116.81;5050407;28;20235;-62
2023/01/09 01:12:09;;;;;;;5.20;4.70;;;6.60;99.90;;;-141.84;77.57;19118.84;5050779;28;20225;-60
2023/01/09 01:14:39;;;;;;;5.30;4.80;;;6.60;99.90;;;-141.84;77.46;19118.84;5050746;28;20636;-62
2023/01/09 01:17:08;;;;;;;5.50;5.00;;;6.60;99.90;;;-141.84;77.68;19112.75;5051453;28;20236;-61
2023/01/09 01:19:37;;;;;;;5.77;5.17;;;6.50;99.90;;;-141.84;78.15;19068.03;5051359;28;20236;-61
2023/01/09 01:22:05;;;;;;;6.70;6.00;;;6.50;99.90;;;-141.84;78.10;19124.94;5050537;28;20236;-60
2023/01/09 01:24:34;;;;;;;6.10;5.20;;;6.50;99.90;;;-141.84;77.69;19139.16;5050450;28;20236;-60
2023/01/09 01:27:02;;;;;;;5.03;4.53;;;6.50;99.90;;;-141.84;77.66;19126.97;5050851;28;20575;-61
2023/01/09 01:29:30;;;;;;;5.50;5.00;;;6.60;99.90;;;-141.84;77.24;19149.31;5050635;28;20221;-60
2023/01/09 01:31:58;;;;;;;5.23;4.70;;;6.50;99.90;;;-141.84;77.28;19145.25;5051299;28;20201;-61
2023/01/09 01:34:28;;;;;;;5.33;4.83;;;6.60;99.90;;;-141.84;77.34;19104.59;5055344;28;20225;-60
2023/01/09 01:36:58;;;;;;;5.30;4.80;;;6.60;99.90;;;-141.84;77.76;19153.38;5054195;28;20224;-60
2023/01/09 01:39:26;;;;;;;5.50;5.00;;;6.60;99.90;;;-141.84;76.77;19120.88;5053822;28;20705;-60
2023/01/09 01:41:54;;;;;;;5.50;5.00;;;6.60;99.90;;;-141.84;76.49;19161.50;5054913;28;20225;-61
2023/01/09 01:45:00;;;;;;;4.70;4.30;;;6.60;99.90;;;-141.84;77.08;19131.03;5040092;28;20713;-59
2023/01/09 01:47:41;;;;;;;5.17;4.50;;;6.70;99.90;;;-141.84;77.11;19135.09;5034651;28;20229;-60
2023/01/09 01:50:19;;;;;;;5.00;4.50;;;6.70;99.90;;;-141.84;76.83;19131.03;5034669;28;20648;-59
2023/01/09 01:52:58;;;;;;;5.10;4.47;;;6.70;99.90;;;-141.84;76.79;19118.84;5034819;28;20193;-61
2023/01/09 01:55:26;;;;;;;4.73;4.33;;;6.80;99.90;;;-141.84;76.13;19151.34;5034586;28;20225;-59
2023/01/09 01:58:02;;;;;;;6.50;4.13;;;6.80;99.90;;;-141.84;75.91;19163.53;5034311;28;20710;-60
2023/01/09 02:00:35;;;;;;;5.47;4.57;;;6.80;99.90;;;-141.84;76.22;19157.44;5051590;28;20727;-59
2023/01/09 02:03:03;;;;;;;4.63;4.23;;;6.80;99.90;;;-141.84;76.20;19135.09;5054203;28;20602;-62
2023/01/09 02:05:33;;;;;;;4.63;3.97;;;6.80;99.90;;;-141.84;76.77;19135.09;5053968;28;20713;-60
2023/01/09 02:08:02;;;;;;;4.97;4.10;;;6.80;99.90;;;-141.84;76.33;19157.44;5054428;28;20209;-61
2023/01/09 02:10:31;;;;;;;4.80;3.97;;;6.80;99.90;;;-141.84;75.84;19175.72;5054429;28;20532;-60
2023/01/09 02:13:01;;;;;;;4.67;4.07;;;6.80;99.90;;;-141.84;75.70;19175.72;5053889;28;20225;-59
2023/01/09 02:15:37;;;;;;;4.67;4.17;;;6.90;99.90;;;-141.84;75.30;19183.84;5053888;28;20237;-60
2023/01/09 02:18:43;;;;;;;5.10;4.07;;;6.90;99.90;;;-141.84;73.29;19183.84;5053900;28;20296;-60
2023/01/09 02:21:24;;;;;;;4.00;3.60;;;7.20;99.90;;;-141.84;73.57;19204.19;5053948;28;20338;-60
2023/01/09 02:24:44;;;;;;;4.67;4.27;;;7.20;99.90;;;-141.84;73.75;19216.38;5053756;28;20331;-59
2023/01/09 02:27:46;;;;;;;3.87;3.50;;;7.20;99.90;;;-141.84;73.05;19208.25;5053630;28;20338;-60
2023/01/09 02:30:34;;;;;;;3.50;3.13;;;7.30;99.90;;;-141.84;70.92;19248.88;5053800;28;20225;-59
2023/01/09 02:33:29;;;;;;;3.50;3.20;;;7.50;99.90;;;-141.84;72.16;19218.41;5053590;28;20229;-59
2023/01/09 02:36:15;;;;;;;3.30;3.00;;;7.60;99.90;;;-141.84;72.15;19236.69;5053613;28;20698;-62
2023/01/09 02:38:59;;;;;;;3.50;3.20;;;7.60;99.90;;;-141.84;72.06;19259.03;5053512;28;20217;-60
2023/01/09 02:41:38;;;;;;;4.70;3.57;;;7.60;99.90;;;-141.84;71.64;19263.09;5053527;28;20236;-59
2023/01/09 02:44:22;;;;;;;3.90;3.37;;;7.70;99.90;;;-141.84;72.71;19196.06;5040046;28;20727;-60
2023/01/09 02:47:05;;;;;;;3.73;3.13;;;7.70;99.90;;;-141.84;73.57;19250.91;5033588;28;20610;-60
2023/01/09 02:49:36;;;;;;;4.53;3.80;;;7.60;99.90;;;-141.84;74.56;19179.78;5034114;28;20184;-60
2023/01/09 02:52:24;;;;;;;5.67;3.97;;;7.60;99.90;;;-141.84;73.34;19261.06;5033401;28;20226;-59
2023/01/09 02:55:09;;;;;;;6.30;3.67;;;7.70;99.90;;;-141.84;74.38;19236.69;5034912;28;20242;-60
2023/01/09 02:57:58;;;;;;;5.50;3.80;;;7.60;99.90;;;-141.84;75.77;19189.97;5053314;28;20233;-59
2023/01/09 03:00:45;;;;;;;4.17;3.73;;;7.60;99.90;;;-141.84;75.89;19200.13;5053076;28;20234;-60
2023/01/09 03:03:26;;;;;;;5.57;3.93;;;7.50;99.90;;;-141.84;75.86;19204.19;5053224;28;20316;-60
2023/01/09 03:06:04;;;;;;;4.10;3.70;;;7.50;99.90;;;-141.84;76.77;19224.50;5053011;28;20228;-60
2023/01/09 03:08:39;;;;;;;4.73;3.90;;;7.50;99.90;;;-141.84;77.55;19192.00;5053038;28;20571;-61
2023/01/09 03:11:10;;;;;;;4.17;3.80;;;7.50;99.90;;;-141.84;78.74;19163.53;5052798;28;20220;-59
2023/01/09 03:13:46;;;;;;;4.83;4.23;;;7.40;99.90;;;-141.84;79.11;19175.72;5053385;28;20201;-59
2023/01/09 03:16:26;;;;;;;4.77;4.27;;;7.30;99.90;;;-141.84;79.91;19196.06;5053159;28;20205;-61
2023/01/09 03:18:59;;;;;;;4.07;3.67;;;7.30;99.90;;;-141.84;80.37;19202.16;5053082;28;20225;-60
2023/01/09 03:21:28;;;;;;;4.10;3.70;;;7.30;99.90;;;-141.84;80.76;19183.84;5052626;28;20239;-60
2023/01/09 03:23:59;;;;;;;5.90;4.33;;;7.30;99.90;;;-141.84;81.62;19159.47;5052731;28;20237;-61
2023/01/09 03:26:29;;;;;;;4.77;4.27;;;7.20;99.90;;;-141.84;82.59;19126.97;5052682;28;20720;-60
2023/01/09 03:28:59;;;;;;;4.30;3.90;;;7.20;99.90;;;-141.84;83.16;19129.00;5052471;28;20202;-60
2023/01/09 03:31:27;;;;;;;4.80;4.27;;;7.10;99.90;;;-141.84;82.69;19141.19;5053207;28;20248;-60
2023/01/09 03:33:57;;;;;;;5.03;4.53;;;7.20;99.90;;;-141.84;83.54;19122.91;5052676;28;20617;-61
2023/01/09 03:36:25;;;;;;;5.03;4.40;;;7.20;99.90;;;-141.84;83.54;19131.03;5052425;28;20221;-60
2023/01/09 03:38:53;;;;;;;7.47;5.07;;;7.10;99.90;;;-141.84;83.80;19165.56;5045011;28;20705;-60
2023/01/09 03:41:21;;;;;;;4.77;4.27;;;7.10;99.90;;;-141.84;84.49;19124.94;5047154;28;20237;-59
2023/01/09 03:43:49;;;;;;;6.30;4.47;;;7.10;99.90;;;-141.84;85.13;19114.78;5052462;28;20201;-60
2023/01/09 03:46:17;;;;;;;4.60;4.20;;;7.10;99.90;;;-141.84;85.89;19106.66;5052825;28;20212;-62
2023/01/09 03:48:45;;;;;;;4.30;3.90;;;7.00;99.90;;;-141.84;86.85;19120.88;5052461;28;20599;-60
2023/01/09 03:51:15;;;;;;;4.50;4.10;;;7.10;99.90;;;-141.84;87.21;19086.31;5051969;28;20229;-60
2023/01/09 03:53:43;;;;;;;4.27;3.83;;;7.00;99.90;;;-141.84;87.71;19086.31;5051928;28;20320;-60
2023/01/09 03:56:11;;;;;;;4.67;3.90;;;7.00;99.90;;;-141.84;87.42;19082.25;5051825;28;20240;-60
2023/01/09 03:58:39;;;;;;;4.37;3.97;;;7.00;99.90;;;-141.84;87.32;19059.91;5052639;28;20227;-59
2023/01/09 04:01:11;;;;;;;4.07;3.57;;;7.00;99.90;;;-141.84;87.44;19092.41;5052323;28;20221;-60
2023/01/09 04:03:40;;;;;;;3.87;3.33;;;7.10;99.90;;;-141.84;87.12;19049.75;5052182;28;20229;-60
2023/01/09 04:06:09;;;;;;;4.57;3.87;;;7.10;99.90;;;-141.84;87.59;19074.13;5051796;28;20842;-60
2023/01/09 04:08:38;;;;;;;4.20;3.80;;;7.00;99.90;;;-141.84;87.91;19059.91;5051985;28;20579;-60
2023/01/09 04:11:07;;;;;;;3.77;3.37;;;7.10;99.90;;;-141.84;87.98;19074.13;5051418;28;20701;-60
2023/01/09 04:13:35;;;;;;;4.17;3.73;;;7.00;99.90;;;-141.84;88.47;19033.50;5052084;28;20205;-62
2023/01/09 04:16:04;;;;;;;4.23;3.50;;;7.00;99.90;;;-141.84;88.65;19029.44;5051383;28;20237;-62
2023/01/09 04:18:32;;;;;;;4.47;3.63;;;7.00;99.90;;;-141.84;88.08;19057.88;5051532;28;20233;-59
2023/01/09 04:21:00;;;;;;;4.77;3.73;;;7.10;99.90;;;-141.84;88.22;19059.91;5051541;28;20248;-61
2023/01/09 04:23:28;;;;;;;3.80;3.40;;;6.80;99.90;;;-141.84;88.70;19039.59;5051623;28;20225;-62
2023/01/09 04:25:58;;;;;;;4.20;3.40;;;7.00;99.90;;;-141.84;89.02;19003.00;5051478;28;20205;-60
2023/01/09 04:28:26;;;;;;;3.70;3.30;;;6.90;99.90;;;-141.84;89.61;19025.38;5051734;28;20205;-62
2023/01/09 04:30:54;;;;;;;3.53;3.23;;;7.00;99.90;;;-141.84;89.73;19035.53;5051404;28;20225;-59
2023/01/09 04:33:22;;;;;;;3.97;3.47;;;7.00;99.90;;;-141.84;89.86;19041.63;5051358;28;20229;-61
2023/01/09 04:35:50;;;;;;;4.43;3.13;;;7.00;99.90;;;-141.84;89.68;19019.28;5051379;28;20225;-61
2023/01/09 04:38:18;;;;;;;4.30;3.53;;;7.00;99.90;;;-141.84;89.64;19017.25;5051211;28;20225;-60
2023/01/09 04:40:48;;;;;;;5.50;3.80;;;7.00;99.90;;;-141.84;89.73;18996.91;5051400;28;20224;-60
2023/01/09 04:43:17;;;;;;;5.00;3.67;;;7.00;99.90;;;-141.84;89.59;19013.16;5051364;28;20737;-61
2023/01/09 04:45:45;;;;;;;4.40;4.00;;;7.00;99.90;;;-141.84;89.50;19029.44;5051042;28;20255;-60
2023/01/09 04:48:14;;;;;;;3.67;3.30;;;7.10;99.90;;;-141.84;89.71;18998.94;5050961;28;20256;-60
2023/01/09 04:50:42;;;;;;;4.07;3.50;;;7.00;99.90;;;-141.84;90.00;19025.38;5051192;28;20236;-61
2023/01/09 04:53:10;;;;;;;4.37;3.33;;;7.00;99.90;;;-141.84;90.14;18984.72;5050789;28;20237;-61
2023/01/09 04:55:40;;;;;;;4.23;3.60;;;7.00;99.90;;;-141.84;90.67;18988.78;5051494;28;20226;-60
2023/01/09 04:58:08;;;;;;;4.30;3.90;;;7.00;99.90;;;-141.84;90.37;19003.00;5051143;28;20219;-59
2023/01/09 05:00:37;;;;;;;5.50;4.40;;;7.00;99.90;;;-141.84;90.40;19007.06;5050831;28;20237;-60
2023/01/09 05:03:06;;;;;;;4.03;3.63;;;7.00;99.90;;;-141.84;90.82;18998.94;5050775;28;20229;-60
2023/01/09 05:05:34;;;;;;;4.63;4.10;;;7.00;99.90;;;-141.84;90.80;18988.78;5050788;28;20610;-59
2023/01/09 05:08:02;;;;;;;3.93;3.60;;;7.00;99.90;;;-141.84;90.75;18968.47;5048862;28;20244;-60
2023/01/09 05:10:30;;;;;;;4.57;3.67;;;7.00;99.90;;;-141.84;90.78;18984.72;5051127;28;20201;-60
2023/01/09 05:12:58;;;;;;;3.73;3.27;;;7.00;99.90;;;-141.84;90.71;18960.34;5050568;28;20708;-59
2023/01/09 05:15:27;;;;;;;3.93;3.53;;;7.00;99.90;;;-141.84;90.46;18972.53;5050738;28;20225;-59
2023/01/09 05:17:56;;;;;;;4.27;3.50;;;7.00;99.90;;;-141.84;90.25;18988.78;5050771;28;20252;-60
2023/01/09 05:20:24;;;;;;;3.90;3.20;;;7.00;99.90;;;-141.84;89.77;18996.91;5051142;28;20228;-59
2023/01/09 05:22:52;;;;;;;4.77;3.40;;;7.00;99.90;;;-141.84;90.01;19005.03;5050358;28;20221;-61
2023/01/09 05:25:21;;;;;;;4.60;3.70;;;7.00;99.90;;;-141.84;89.13;19000.97;5051190;28;20224;-59
2023/01/09 05:27:49;;;;;;;4.30;3.80;;;6.90;99.90;;;-141.84;89.15;18970.50;5050537;28;20245;-61
2023/01/09 05:30:18;;;;;;;4.70;4.00;;;7.00;99.90;;;-141.84;89.37;18980.66;5050693;28;20217;-60
2023/01/09 05:32:46;;;;;;;4.80;3.53;;;7.00;99.90;;;-141.84;89.11;18984.72;5050254;28;20229;-62
2023/01/09 05:35:16;;;;;;;4.47;3.93;;;7.00;99.90;;;-141.84;89.04;19015.19;5050640;28;20229;-60
2023/01/09 05:37:44;;;;;;;4.27;3.50;;;7.10;99.90;;;-141.84;88.02;19015.19;5050643;28;20202;-61
2023/01/09 05:40:13;;;;;;;4.30;3.90;;;7.10;99.90;;;-141.84;88.00;18972.53;5050907;28;20193;-60
2023/01/09 05:42:43;;;;;;;4.30;3.90;;;7.10;99.90;;;-141.84;87.97;19000.97;5050033;28;20247;-61
2023/01/09 05:45:12;;;;;;;4.23;3.63;;;7.00;99.90;;;-141.84;87.74;19011.13;5050217;28;20232;-60
2023/01/09 05:47:41;;;;;;;4.20;3.80;;;7.10;99.90;;;-141.84;87.95;19009.09;5050580;28;20260;-61
2023/01/09 05:50:11;;;;;;;3.77;3.47;;;7.00;99.90;;;-141.84;87.87;18996.91;5050215;28;20233;-61
2023/01/09 05:52:41;;;;;;;4.10;3.70;;;7.00;99.90;;;-141.84;87.08;19000.97;5050936;28;20201;-60
2023/01/09 05:55:12;;;;;;;4.23;3.83;;;7.10;99.90;;;-141.84;87.24;18988.78;5050507;28;20252;-62
2023/01/09 05:57:40;;;;;;;4.40;3.97;;;7.00;99.90;;;-141.84;85.43;19033.50;5050107;28;20221;-61
2023/01/09 06:00:10;;;;;;;3.63;3.33;;;7.20;99.90;;;-141.84;85.45;19025.38;5050391;28;20232;-60
2023/01/09 06:02:40;;;;;;;4.77;3.47;;;7.10;99.90;;;-141.84;86.22;18984.72;5049902;28;20299;-60
2023/01/09 06:05:09;;;;;;;4.40;4.00;;;7.10;99.90;;;-141.84;86.22;19049.75;5050250;28;20243;-60
2023/01/09 06:07:39;;;;;;;4.13;3.50;;;7.10;99.90;;;-141.84;86.43;18994.88;5050715;28;20209;-60
2023/01/09 06:10:13;;;;;;;4.53;3.90;;;7.10;99.90;;;-141.84;85.99;19025.38;5050239;28;20225;-60
2023/01/09 06:12:43;;;;;;;4.10;3.70;;;7.20;99.90;;;-141.84;84.94;19031.47;5050091;28;20232;-62
2023/01/09 06:15:14;;;;;;;4.03;3.43;;;7.20;99.90;;;-141.84;85.21;19033.50;5050227;28;20239;-60
2023/01/09 06:17:42;;;;;;;4.00;3.60;;;7.20;99.90;;;-141.84;85.36;19031.47;5049932;28;20237;-61
2023/01/09 06:20:12;;;;;;;5.03;3.90;;;7.20;99.90;;;-141.84;84.20;19076.16;5053967;28;20229;-60
2023/01/09 06:22:40;;;;;;;4.13;3.60;;;7.30;99.90;;;-141.84;84.11;19033.50;5054082;28;20554;-59
2023/01/09 06:25:10;;;;;;;4.50;4.00;;;7.30;99.90;;;-141.84;84.12;19003.00;5053965;28;20916;-61
2023/01/09 06:27:38;;;;;;;4.33;3.67;;;7.30;99.90;;;-141.84;84.18;19029.44;5053745;28;20232;-59
2023/01/09 06:30:08;;;;;;;4.70;3.73;;;7.30;99.90;;;-141.84;84.42;19029.44;5053511;28;20229;-60
2023/01/09 06:32:37;;;;;;;5.17;3.80;;;7.30;99.90;;;-141.84;84.05;19021.31;5053625;28;20233;-60
2023/01/09 06:35:05;;;;;;;4.60;3.80;;;7.30;99.90;;;-141.84;84.27;19029.44;5053762;28;20221;-60
2023/01/09 06:37:34;;;;;;;4.40;4.00;;;7.20;99.90;;;-141.84;83.96;19045.69;5053908;28;20213;-60
2023/01/09 06:40:02;;;;;;;4.47;3.90;;;7.20;99.90;;;-141.84;84.16;19029.44;5053105;28;20228;-59
2023/01/09 06:42:31;;;;;;;5.53;4.00;;;7.20;99.90;;;-141.84;83.17;19051.78;5053162;28;20275;-60
2023/01/09 06:44:59;;;;;;;4.00;3.47;;;7.30;99.90;;;-141.84;82.65;19066.00;5053333;28;20225;-61
2023/01/09 06:47:27;;;;;;;4.63;3.73;;;7.30;99.90;;;-141.84;82.60;19063.97;5053493;28;20283;-60
2023/01/09 06:49:57;;;;;;;4.40;4.00;;;7.30;99.90;;;-141.84;81.97;19045.69;5053229;28;20198;-60
2023/01/09 06:52:25;;;;;;;4.13;3.73;;;7.30;99.90;;;-141.84;81.75;19055.84;5053209;28;20205;-59
2023/01/09 06:54:53;;;;;;;4.23;3.73;;;7.40;99.90;;;-141.84;82.55;19061.94;5052811;28;20347;-60
2023/01/09 06:57:21;;;;;;;4.27;3.60;;;7.30;99.90;;;-141.84;81.77;19078.19;5052767;28;20233;-61
2023/01/09 06:59:50;;;;;;;4.83;4.00;;;7.40;99.90;;;-141.84;82.33;19057.88;5052540;28;20236;-60
2023/01/09 07:02:21;;;;;;;4.80;4.10;;;7.30;99.90;;;-141.84;82.29;19057.88;5052935;28;20256;-59
2023/01/09 07:04:49;;;;;;;4.17;3.60;;;7.40;99.90;;;-141.84;82.60;19035.53;5052939;28;20197;-60
2023/01/09 07:07:18;;;;;;;4.87;4.00;;;7.30;99.90;;;-141.84;81.89;19031.47;5053219;28;20213;-60
2023/01/09 07:09:46;;;;;;;6.03;3.80;;;7.40;99.90;;;-141.84;82.94;19047.72;5052361;28;20229;-60
2023/01/09 07:12:15;;;;;;;4.30;3.87;;;7.30;99.90;;;-141.84;81.67;19086.31;5052933;28;20225;-62
2023/01/09 07:14:43;;;;;;;4.90;3.97;;;7.30;99.90;;;-141.84;81.43;19082.25;5052807;28;20239;-61
2023/01/09 07:17:16;;;;;;;5.20;3.93;;;7.40;99.90;;;-141.84;81.83;19082.25;5052631;28;20233;-59
2023/01/09 07:19:44;;;;;;;4.60;3.73;;;7.40;99.90;;;-141.84;81.47;19078.19;5052775;28;20206;-60
2023/01/09 07:22:12;;;;;;;4.43;4.03;;;7.40;99.90;;;-141.84;81.75;19100.53;5053266;28;20221;-60
2023/01/09 07:24:43;;;;;;;4.53;4.10;;;7.40;99.90;;;-141.84;81.59;19082.25;5051674;28;20229;-60
2023/01/09 07:27:11;;;;;;;4.37;3.97;;;7.40;99.90;;;-141.84;80.83;19092.41;5051916;28;20232;-61
2023/01/09 07:29:39;;;;;;;5.43;4.20;;;7.50;99.90;;;-141.84;81.29;19110.72;5052040;28;20230;-61
2023/01/09 07:32:08;;;;;;;6.23;4.27;;;7.40;99.90;;;-141.84;82.33;19086.31;5052455;28;20221;-61
2023/01/09 07:34:37;;;;;;;4.97;4.00;;;7.40;99.90;;;-141.84;82.14;19057.88;5052795;28;20205;-60
2023/01/09 07:37:05;;;;;;;6.40;4.40;;;7.50;99.90;;;-141.84;82.16;19051.78;5051944;28;20225;-60
2023/01/09 07:39:33;;;;;;;5.23;4.20;;;7.50;99.90;;;-141.84;82.35;19063.97;5052033;28;20232;-61
2023/01/09 07:42:02;;;;;;;4.57;4.07;;;7.50;99.90;;;-141.84;82.29;19082.25;5032633;28;20236;-60
2023/01/09 07:44:30;;;;;;;7.17;4.27;;;7.50;99.90;;;-141.84;82.62;19070.06;5047134;28;20237;-60
2023/01/09 07:46:58;;;;;;;5.30;4.47;;;7.50;99.90;;;-141.84;82.49;19084.28;5052256;28;20206;-59
2023/01/09 07:49:26;;;;;;;6.00;3.90;;;7.50;99.90;;;-141.84;82.83;19080.22;5052661;28;20209;-61
2023/01/09 07:51:56;;;;;;;5.47;4.13;;;7.50;99.90;;;-141.84;82.46;19086.31;5052180;28;20248;-60
2023/01/09 07:54:24;;;;;;;4.93;3.77;;;7.50;99.90;;;-141.84;82.39;19094.44;5051674;28;20237;-59
2023/01/09 07:56:52;;;;;;;3.43;3.13;;;7.60;99.90;;;-141.84;82.65;19074.13;5052000;28;20236;-61
2023/01/09 07:59:20;;;;;;;4.00;3.00;;;7.60;99.90;;;-141.84;82.55;19090.38;5051906;28;20282;-61
2023/01/09 08:01:49;;;;;;;3.43;3.13;;;7.60;99.90;;;-141.84;81.59;19131.03;5051987;28;20205;-60
2023/01/09 08:04:17;;;;;;;3.40;2.97;;;7.70;99.90;;;-141.84;80.84;19108.69;5052540;28;20253;-60
2023/01/09 08:06:45;;;;;;;3.00;2.50;;;7.80;99.90;;;-141.84;80.91;19116.81;5051297;28;20229;-61
2023/01/09 08:09:15;;;;;;;3.97;2.63;;;7.80;99.90;;;-141.84;81.22;19098.50;5051636;28;20243;-63
2023/01/09 08:11:43;;;;;;;2.90;2.70;;;7.80;99.90;;;-141.84;80.62;19124.94;5051284;28;20291;-61
2023/01/09 08:14:11;;;;;;;2.70;2.50;;;7.90;99.90;;;-141.84;80.30;19131.03;5051993;28;20240;-60
2023/01/09 08:16:39;;;;;;;2.27;2.07;;;8.00;99.90;;;-141.84;79.21;19151.34;5052350;28;20213;-61
2023/01/09 08:19:10;;;;;;;2.93;2.63;;;8.00;99.90;;;-141.84;78.75;19143.22;5052208;28;20229;-61
2023/01/09 08:21:39;;;;;;;2.13;1.90;;;8.10;99.90;;;-141.84;78.70;19137.13;5051826;28;20221;-60
2023/01/09 08:24:09;;;;;;;1.97;1.77;;;8.20;99.90;;;-141.84;78.98;19177.75;5051659;28;20228;-60
2023/01/09 08:26:39;;;;;;;1.80;1.70;;;8.10;99.90;;;-141.84;78.63;19196.06;5052086;28;20221;-61
2023/01/09 08:29:07;;;;;;;1.50;1.40;;;8.20;99.90;;;-141.84;77.99;19153.38;5051758;28;20221;-60
2023/01/09 08:31:35;;;;;;;1.60;1.30;;;8.20;99.90;;;-141.84;78.48;19165.56;5052514;28;20212;-60
2023/01/09 08:34:04;;;;;;;1.27;1.17;;;8.20;99.90;;;-141.84;79.61;19135.09;5035824;28;20221;-60
2023/01/09 08:36:32;;;;;;;1.50;1.30;;;8.10;99.90;;;-141.84;78.34;19185.88;5031508;28;20225;-60
2023/01/09 08:39:00;;;;;;;2.03;1.60;;;8.20;99.90;;;-141.84;77.82;19196.06;5049902;28;20273;-61
2023/01/09 08:47:07;;;;;;;0.90;0.90;;;8.40;99.90;;;-141.84;76.02;19183.84;5051556;28;20189;-61
2023/01/09 08:49:38;;;;;;;1.10;1.00;;;8.50;99.90;;;-141.84;75.91;19224.50;5052132;28;20254;-61
2023/01/09 08:52:07;;;;;;;0.90;0.90;;;8.60;99.90;;;-141.84;75.10;19265.13;5051152;28;20228;-60
2023/01/09 08:54:35;;;;;;;1.20;1.00;;;8.60;99.90;;;-141.84;74.91;19250.91;5050950;28;20244;-60
2023/01/09 08:57:04;;;;;;;1.03;0.93;;;8.70;99.90;;;-141.84;74.92;19281.41;5051194;28;20248;-60
2023/01/09 08:59:34;;;;;;;1.00;1.00;;;8.70;99.90;;;-141.84;74.60;19257.00;5051096;28;20225;-61
2023/01/09 09:02:02;;;;;;;1.20;1.10;;;8.80;99.90;;;-141.84;74.12;19277.34;5051429;28;20236;-60
2023/01/09 09:04:30;;;;;;;1.20;1.10;;;8.80;99.90;;;-141.84;73.30;19307.81;5051779;28;20221;-60
2023/01/09 09:06:58;;;;;;;1.20;1.10;;;8.90;99.90;;;-141.84;73.41;19291.56;5050771;28;20236;-61
2023/01/09 09:09:26;;;;;;;1.00;1.00;;;8.90;99.90;;;-141.84;72.07;19317.97;5050806;28;20229;-60
2023/01/09 09:11:54;;;;;;;1.20;1.10;;;9.00;99.90;;;-141.84;72.99;19313.91;5030624;28;20230;-60
2023/01/09 09:17:10;;;;;;;1.30;1.20;;;9.10;99.90;;;-141.84;72.36;19326.09;5031228;28;20230;-60
2023/01/09 09:19:41;;;;;;;1.03;1.00;;;9.10;99.90;;;-141.84;72.20;19326.09;5031889;28;20221;-60
2023/01/09 09:22:09;;;;;;;1.20;1.10;;;9.10;99.90;;;-141.84;72.51;19364.72;5031286;28;20202;-60
2023/01/09 09:24:37;;;;;;;1.33;1.23;;;9.10;99.90;;;-141.84;72.20;19307.81;5030629;28;20230;-60
2023/01/09 09:27:06;;;;;;;1.17;1.07;;;9.10;99.90;;;-141.84;72.60;19322.03;5030760;28;20229;-60
2023/01/09 09:29:34;;;;;;;1.17;1.07;;;9.00;99.90;;;-141.84;73.38;19281.41;5040255;28;20232;-60
2023/01/09 09:32:02;;;;;;;1.40;1.30;;;9.10;99.90;;;-141.84;73.52;19330.16;5050851;28;20244;-60
2023/01/09 09:34:32;;;;;;;1.17;1.07;;;9.00;99.90;;;-141.84;73.10;19295.63;5051300;28;20208;-61
2023/01/09 09:37:00;;;;;;;2.40;1.10;;;8.80;99.90;;;-141.84;72.42;19340.31;5050303;28;20697;-60
2023/01/09 09:39:28;;;;;;;0.93;0.90;;;9.00;99.90;;;-141.84;71.38;19336.25;5050621;28;20283;-60
2023/01/09 09:45:26;;;;;;;0.77;0.77;;;9.20;99.90;;;-141.84;69.67;19376.91;5030479;28;20226;-60
2023/01/09 09:48:15;;;;;;;0.87;0.87;;;9.50;99.90;;;-141.84;69.67;19397.22;5038913;28;20213;-59
2023/01/09 09:51:35;;;;;;;2.70;0.80;;;9.40;99.90;;;-141.84;70.38;19348.47;5050505;28;20228;-60
2023/01/09 09:54:12;;;;;;;1.17;1.03;;;9.30;99.90;;;-141.84;70.48;19340.31;5050018;28;20233;-61
2023/01/09 09:56:48;;;;;;;2.07;0.80;;;9.30;99.90;;;-141.84;69.06;19393.16;5054740;28;20228;-60
2023/01/09 09:59:21;;;;;;;1.13;0.90;;;9.30;99.90;;;-141.84;69.14;19370.81;5054435;28;20235;-60
2023/01/09 10:01:55;;;;;;;1.23;0.70;;;9.20;99.90;;;-141.84;68.66;19380.97;5054653;28;20189;-61
2023/01/09 10:04:29;;;;;;;1.33;0.80;;;9.30;99.90;;;-141.84;66.75;19437.88;5055049;28;20215;-60
2023/01/09 10:07:04;;;;;;;2.13;1.43;;;9.60;99.90;;;-141.84;66.75;19429.75;5054152;28;20727;-60
2023/01/09 10:09:49;;;;;;;0.73;0.67;;;9.60;99.90;;;-141.84;65.98;19443.97;5053903;28;21041;-60
2023/01/09 10:12:28;;;;;;;1.03;0.97;;;9.60;99.90;;;-141.84;67.15;19433.81;5054153;28;20233;-61
2023/01/09 10:14:59;;;;;;;0.80;0.80;;;9.50;99.90;;;-141.84;66.89;19435.84;5054331;28;20720;-59
2023/01/09 10:17:51;;;;;;;1.00;0.70;;;9.50;99.90;;;-141.84;65.70;19437.88;5054111;28;20229;-59
2023/01/09 10:20:48;;;;;;;0.83;0.67;;;9.40;99.90;;;-141.84;64.64;19462.25;5054265;28;20229;-60
2023/01/09 10:23:43;;;;;;;1.17;0.77;;;9.60;99.90;;;-141.84;63.50;19466.31;5053781;28;20236;-60
2023/01/09 10:26:21;;;;;;;1.37;0.80;;;9.60;99.90;;;-141.84;64.35;19460.22;5054145;28;20329;-60
2023/01/09 10:29:12;;;;;;;0.93;0.50;;;9.50;99.90;;;-141.84;64.37;19468.34;5054036;28;20182;-60
2023/01/09 10:31:59;;;;;;;0.60;0.60;;;9.40;99.90;;;-141.84;64.69;19425.69;5054830;28;20201;-59
2023/01/09 10:34:50;;;;;;;1.27;0.60;;;9.40;99.90;;;-141.84;62.60;19468.34;5054285;28;20205;-60
2023/01/09 10:37:25;;;;;;;0.90;0.60;;;9.50;99.90;;;-141.84;62.59;19529.31;5054034;28;20243;-60
2023/01/09 10:40:02;;;;;;;1.13;0.70;;;9.70;99.90;;;-141.84;61.98;19529.31;5053499;28;20233;-60
2023/01/09 10:42:39;;;;;;;1.00;0.70;;;9.60;99.90;;;-141.84;61.23;19561.84;5053484;28;20235;-60
2023/01/09 10:45:20;;;;;;;0.70;0.67;;;9.70;99.90;;;-141.84;60.79;19498.84;5050015;28;20228;-60
2023/01/09 10:47:49;;;;;;;0.80;0.60;;;9.80;99.90;;;-141.84;61.76;19549.63;5053689;28;20227;-60
2023/01/09 10:50:22;;;;;;;2.10;0.60;;;9.90;99.90;;;-141.84;59.60;19545.56;5053407;28;20731;-61